createdAt,value
2023-05-13T00:01:41.251Z,4.00
2023-05-13T00:04:08.848Z,3.15
2023-05-13T00:06:36.322Z,4.38
2023-05-13T00:09:03.941Z,4.55
2023-05-13T00:11:30.832Z,3.22
2023-05-13T00:13:57.783Z,4.20
2023-05-13T00:16:27.706Z,5.10
2023-05-13T00:18:55.990Z,3.42
2023-05-13T00:21:23.601Z,4.32
2023-05-13T00:23:50.645Z,3.22
2023-05-13T00:26:17.656Z,3.97
2023-05-13T00:28:47.498Z,3.35
2023-05-13T00:31:14.303Z,3.08
2023-05-13T00:33:41.176Z,3.97
2023-05-13T00:36:10.141Z,3.10
2023-05-13T00:38:37.855Z,5.10
2023-05-13T00:41:05.800Z,2.95
2023-05-13T00:43:32.643Z,4.10
2023-05-13T00:46:00.073Z,3.20
2023-05-13T00:48:27.342Z,3.42
2023-05-13T00:50:54.240Z,4.43
2023-05-13T00:53:21.091Z,3.50
2023-05-13T00:55:48.070Z,3.42
2023-05-13T00:58:14.981Z,3.50
2023-05-13T01:00:50.974Z,3.53
2023-05-13T01:03:27.850Z,4.00
2023-05-13T01:06:18.121Z,3.60
2023-05-13T01:09:13.631Z,3.42
2023-05-13T01:11:41.745Z,4.43
2023-05-13T01:14:15.001Z,5.25
2023-05-13T01:19:44.368Z,3.00
2023-05-13T01:22:11.181Z,4.13
2023-05-13T01:24:38.426Z,4.20
2023-05-13T01:27:06.375Z,2.28
2023-05-13T01:29:33.574Z,3.70
2023-05-13T01:32:03.106Z,5.07
2023-05-13T01:34:31.112Z,2.92
2023-05-13T01:36:59.482Z,2.88
2023-05-13T01:39:27.982Z,4.82
2023-05-13T01:41:58.215Z,6.20
2023-05-13T01:44:25.755Z,3.53
2023-05-13T01:46:53.643Z,4.93
2023-05-13T01:49:20.929Z,2.85
2023-05-13T01:51:47.732Z,4.05
2023-05-13T01:54:14.597Z,3.33
2023-05-13T01:56:47.821Z,2.75
2023-05-13T01:59:15.045Z,4.00
2023-05-13T02:01:41.962Z,2.25
2023-05-13T02:04:08.792Z,4.38
2023-05-13T02:06:35.741Z,6.13
2023-05-13T02:09:03.017Z,3.17
2023-05-13T02:11:29.907Z,3.47
2023-05-13T02:13:57.636Z,3.38
2023-05-13T02:16:24.470Z,4.82
2023-05-13T02:18:51.505Z,14.43
2023-05-13T02:21:18.753Z,3.20
2023-05-13T02:23:45.581Z,6.00
2023-05-13T02:26:12.463Z,2.97
2023-05-13T02:28:39.254Z,3.63
2023-05-13T02:31:06.703Z,4.05
2023-05-13T02:33:34.051Z,5.88
2023-05-13T02:36:00.917Z,5.78
2023-05-13T02:38:27.876Z,5.65
2023-05-13T02:40:54.818Z,5.30
2023-05-13T02:43:23.779Z,3.33
2023-05-13T02:45:56.896Z,3.20
2023-05-13T02:48:23.750Z,4.32
2023-05-13T02:50:51.086Z,5.47
2023-05-13T02:53:17.924Z,5.72
2023-05-13T02:55:51.523Z,7.07
2023-05-13T02:58:18.618Z,3.78
2023-05-13T03:00:47.675Z,6.32
2023-05-13T03:03:14.646Z,6.07
2023-05-13T03:05:41.609Z,5.28
2023-05-13T03:08:08.447Z,3.70
2023-05-13T03:10:35.585Z,4.85
2023-05-13T03:13:02.397Z,5.78
2023-05-13T03:15:29.519Z,5.65
2023-05-13T03:17:57.974Z,4.13
2023-05-13T03:20:25.276Z,3.40
2023-05-13T03:22:52.178Z,5.32
2023-05-13T03:25:19.752Z,2.97
2023-05-13T03:27:51.729Z,4.53
2023-05-13T03:30:21.368Z,3.35
2023-05-13T03:32:57.859Z,3.20
2023-05-13T03:35:24.775Z,3.63
2023-05-13T03:37:52.619Z,4.40
2023-05-13T03:40:19.784Z,3.22
2023-05-13T03:42:47.067Z,3.65
2023-05-13T03:45:14.024Z,4.60
2023-05-13T03:47:43.616Z,4.88
2023-05-13T03:50:14.956Z,3.35
2023-05-13T03:52:45.534Z,3.08
2023-05-13T03:55:15.189Z,3.20
2023-05-13T03:57:45.152Z,4.47
2023-05-13T04:00:12.886Z,3.28
2023-05-13T04:02:42.834Z,3.35
2023-05-13T04:05:13.377Z,3.13
2023-05-13T04:07:41.096Z,5.90
2023-05-13T04:10:08.541Z,2.95
2023-05-13T04:12:35.462Z,3.15
2023-05-13T04:15:02.348Z,3.53
2023-05-13T04:17:30.287Z,3.10
2023-05-13T04:19:57.211Z,2.97
2023-05-13T04:22:24.682Z,3.53
2023-05-13T04:24:56.402Z,5.38
2023-05-13T04:27:24.315Z,6.57
2023-05-13T04:29:55.132Z,4.50
2023-05-13T04:32:22.303Z,3.47
2023-05-13T04:34:53.407Z,3.45
2023-05-13T04:37:21.000Z,4.40
2023-05-13T04:39:49.473Z,5.30
2023-05-13T04:42:18.439Z,3.17
2023-05-13T04:44:45.319Z,4.25
2023-05-13T04:47:12.197Z,5.05
2023-05-13T04:49:39.032Z,4.53
2023-05-13T04:52:06.755Z,2.78
2023-05-13T04:54:35.929Z,2.13
2023-05-13T04:57:03.427Z,3.47
2023-05-13T04:59:31.071Z,4.13
2023-05-13T05:01:58.144Z,2.58
2023-05-13T05:04:25.666Z,2.33
2023-05-13T05:06:53.038Z,4.18
2023-05-13T05:09:19.977Z,2.67
2023-05-13T05:11:50.633Z,4.15
2023-05-13T05:14:20.253Z,3.35
2023-05-13T05:16:49.015Z,5.97
2023-05-13T05:19:15.981Z,2.85
2023-05-13T05:21:43.027Z,2.72
2023-05-13T05:24:10.762Z,3.30
2023-05-13T05:26:37.557Z,4.70
2023-05-13T05:29:05.757Z,3.22
2023-05-13T05:31:33.441Z,4.78
2023-05-13T05:34:02.266Z,3.90
2023-05-13T05:36:29.691Z,3.83
2023-05-13T05:38:56.642Z,4.57
2023-05-13T05:41:30.733Z,2.88
2023-05-13T05:43:57.683Z,4.25
2023-05-13T05:46:24.830Z,2.80
2023-05-13T05:48:52.305Z,3.47
2023-05-13T05:51:20.506Z,4.75
2023-05-13T05:53:47.716Z,4.63
2023-05-13T05:56:16.454Z,4.13
2023-05-13T05:58:45.022Z,2.88
2023-05-13T06:01:12.103Z,3.80
2023-05-13T06:03:39.282Z,2.28
2023-05-13T06:06:06.332Z,5.63
2023-05-13T06:08:33.974Z,3.88
2023-05-13T06:11:01.081Z,3.33
2023-05-13T06:13:28.119Z,5.00
2023-05-13T06:15:55.527Z,6.03
2023-05-13T06:18:22.952Z,2.70
2023-05-13T06:20:50.053Z,6.30
2023-05-13T06:23:18.671Z,5.45
2023-05-13T06:25:45.706Z,4.78
2023-05-13T06:28:12.729Z,3.58
2023-05-13T06:30:39.598Z,4.15
2023-05-13T06:33:08.275Z,3.35
2023-05-13T06:35:37.407Z,5.57
2023-05-13T06:38:06.037Z,2.50
2023-05-13T06:40:33.934Z,2.70
2023-05-13T06:43:01.132Z,2.67
2023-05-13T06:45:36.851Z,3.17
2023-05-13T06:48:04.053Z,3.40
2023-05-13T06:50:30.928Z,3.67
2023-05-13T06:52:58.649Z,3.22
2023-05-13T06:55:25.731Z,2.90
2023-05-13T06:57:53.135Z,3.55
2023-05-13T07:00:20.492Z,4.25
2023-05-13T07:02:47.565Z,4.40
2023-05-13T07:05:14.412Z,3.05
2023-05-13T07:07:42.311Z,4.55
2023-05-13T07:10:09.593Z,6.32
2023-05-13T07:12:36.478Z,4.15
2023-05-13T07:15:03.424Z,5.05
2023-05-13T07:17:31.408Z,4.75
2023-05-13T07:19:58.426Z,4.32
2023-05-13T07:22:25.242Z,5.82
2023-05-13T07:24:52.039Z,4.30
2023-05-13T07:27:18.846Z,5.43
2023-05-13T07:29:45.678Z,6.05
2023-05-13T07:32:12.547Z,5.50
2023-05-13T07:34:39.462Z,5.75
2023-05-13T07:37:06.294Z,6.75
2023-05-13T07:39:33.111Z,5.05
2023-05-13T07:42:00.712Z,4.32
2023-05-13T07:44:27.527Z,4.97
2023-05-13T07:46:54.354Z,6.45
2023-05-13T07:49:21.635Z,5.45
2023-05-13T07:51:48.717Z,8.23
2023-05-13T07:54:15.529Z,6.57
2023-05-13T07:56:44.262Z,5.35
2023-05-13T07:59:11.191Z,7.50
2023-05-13T08:01:38.079Z,5.55
2023-05-13T08:04:05.091Z,3.35
2023-05-13T08:06:32.827Z,4.43
2023-05-13T08:08:59.961Z,5.57
2023-05-13T08:11:26.894Z,5.43
2023-05-13T08:13:54.049Z,5.00
2023-05-13T08:16:20.956Z,5.13
2023-05-13T08:18:47.856Z,7.45
2023-05-13T08:21:14.753Z,8.93
2023-05-13T08:23:45.947Z,6.47
2023-05-13T08:26:13.503Z,5.40
2023-05-13T08:28:41.912Z,6.65
2023-05-13T08:31:11.417Z,5.93
2023-05-13T08:33:38.367Z,4.88
2023-05-13T08:36:05.676Z,5.22
2023-05-13T08:38:33.642Z,5.47
2023-05-13T08:41:03.697Z,4.50
2023-05-13T08:43:32.905Z,4.88
2023-05-13T08:46:04.137Z,5.68
2023-05-13T08:48:32.171Z,4.10
2023-05-13T08:51:01.114Z,4.60
2023-05-13T08:53:28.493Z,4.53
2023-05-13T08:55:56.501Z,5.10
2023-05-13T08:58:24.698Z,3.90
2023-05-13T09:00:52.976Z,4.45
2023-05-13T09:03:21.504Z,3.95
2023-05-13T09:05:48.397Z,4.72
2023-05-13T09:08:15.192Z,6.65
2023-05-13T09:10:42.396Z,3.85
2023-05-13T09:13:11.124Z,4.82
2023-05-13T09:15:42.819Z,4.32
2023-05-13T09:18:09.784Z,3.47
2023-05-13T09:20:37.043Z,3.97
2023-05-13T09:23:09.311Z,3.17
2023-05-13T09:25:37.334Z,3.60
2023-05-13T09:28:06.288Z,3.35
2023-05-13T09:30:34.256Z,4.05
2023-05-13T09:33:11.264Z,3.55
2023-05-13T09:35:40.408Z,5.80
2023-05-13T09:38:27.711Z,4.40
2023-05-13T09:40:55.403Z,4.30
2023-05-13T09:43:27.761Z,5.60
2023-05-13T09:45:55.877Z,6.13
2023-05-13T09:48:26.815Z,7.30
2023-05-13T09:50:55.067Z,4.43
2023-05-13T09:53:21.952Z,3.72
2023-05-13T09:55:50.296Z,2.95
2023-05-13T09:58:20.256Z,4.47
2023-05-13T10:00:48.113Z,4.00
2023-05-13T10:03:16.336Z,3.63
2023-05-13T10:05:43.529Z,5.82
2023-05-13T10:08:12.883Z,4.60
2023-05-13T10:10:41.490Z,3.50
2023-05-13T10:13:14.606Z,4.85
2023-05-13T10:15:47.385Z,2.58
2023-05-13T10:18:15.668Z,4.55
2023-05-13T10:20:43.228Z,5.55
2023-05-13T10:23:11.300Z,3.17
2023-05-13T10:25:38.644Z,3.45
2023-05-13T10:28:06.020Z,2.70
2023-05-13T10:30:35.738Z,2.63
2023-05-13T10:33:04.040Z,3.65
2023-05-13T10:35:39.190Z,2.72
2023-05-13T10:38:15.164Z,3.10
2023-05-13T10:41:09.514Z,2.58
2023-05-13T10:43:37.357Z,3.55
2023-05-13T10:46:05.634Z,2.58
2023-05-13T10:48:41.298Z,3.40
2023-05-13T10:51:08.459Z,4.40
2023-05-13T10:53:47.947Z,3.05
2023-05-13T10:56:15.675Z,2.65
2023-05-13T10:58:42.630Z,2.45
2023-05-13T11:01:37.787Z,3.88
2023-05-13T11:04:05.943Z,3.42
2023-05-13T11:06:38.460Z,4.30
2023-05-13T11:09:12.272Z,3.03
2023-05-13T11:11:39.500Z,2.10
2023-05-13T11:14:19.346Z,2.47
2023-05-13T11:16:48.785Z,2.28
2023-05-13T11:19:23.671Z,1.60
2023-05-13T11:21:53.154Z,3.17
2023-05-13T11:24:21.939Z,2.22
2023-05-13T11:26:59.173Z,5.15
2023-05-13T11:29:36.436Z,1.77
2023-05-13T11:32:05.152Z,2.28
2023-05-13T11:34:33.316Z,3.88
2023-05-13T11:37:12.417Z,3.28
2023-05-13T11:39:41.371Z,3.30
2023-05-13T11:42:11.783Z,4.50
2023-05-13T11:44:47.136Z,3.33
2023-05-13T11:47:16.342Z,3.63
2023-05-13T11:49:45.225Z,3.17
2023-05-13T11:52:13.449Z,4.25
2023-05-13T11:54:45.193Z,3.65
2023-05-13T11:57:25.292Z,2.65
2023-05-13T12:00:04.872Z,3.22
2023-05-13T12:02:44.540Z,2.78
2023-05-13T12:05:12.143Z,3.72
2023-05-13T12:07:39.671Z,3.50
2023-05-13T12:10:07.651Z,2.75
2023-05-13T12:12:38.595Z,3.55
2023-05-13T12:15:08.098Z,4.47
2023-05-13T12:17:35.697Z,4.80
2023-05-13T12:20:13.998Z,2.97
2023-05-13T12:22:44.156Z,3.22
2023-05-13T12:25:46.692Z,2.67
2023-05-13T12:28:19.413Z,3.85
2023-05-13T12:31:16.123Z,2.40
2023-05-13T12:33:46.806Z,3.75
2023-05-13T12:36:25.866Z,3.85
2023-05-13T12:39:02.150Z,4.55
2023-05-13T12:41:31.335Z,2.78
2023-05-13T12:44:03.353Z,7.30
2023-05-13T12:46:30.555Z,4.38
2023-05-13T12:48:59.154Z,4.63
2023-05-13T12:51:26.367Z,3.25
2023-05-13T12:53:54.606Z,4.03
2023-05-13T12:56:25.702Z,2.90
2023-05-13T12:58:56.114Z,3.13
2023-05-13T13:01:23.434Z,6.28
2023-05-13T13:03:50.424Z,4.15
2023-05-13T13:06:18.463Z,3.60
2023-05-13T13:08:45.757Z,5.15
2023-05-13T13:11:18.341Z,4.32
2023-05-13T13:13:46.731Z,4.47
2023-05-13T13:16:14.300Z,2.42
2023-05-13T13:18:41.760Z,3.58
2023-05-13T13:21:09.117Z,4.72
2023-05-13T13:23:36.006Z,3.78
2023-05-13T13:26:03.340Z,9.90
2023-05-13T13:28:31.811Z,3.40
2023-05-13T13:31:00.028Z,3.17
2023-05-13T13:33:27.161Z,2.67
2023-05-13T13:35:54.208Z,5.18
2023-05-13T13:38:21.227Z,3.55
2023-05-13T13:40:48.082Z,3.35
2023-05-13T13:43:14.874Z,3.60
2023-05-13T13:45:42.042Z,3.83
2023-05-13T13:48:08.949Z,4.10
2023-05-13T13:50:35.873Z,5.22
2023-05-13T13:53:02.719Z,3.92
2023-05-13T13:55:29.643Z,3.25
2023-05-13T13:57:56.547Z,2.67
2023-05-13T14:00:23.623Z,2.60
2023-05-13T14:02:50.826Z,2.97
2023-05-13T14:05:17.834Z,2.92
2023-05-13T14:07:44.762Z,2.65
2023-05-13T14:10:11.980Z,4.18
2023-05-13T14:12:39.075Z,2.88
2023-05-13T14:15:07.736Z,3.22
2023-05-13T14:17:34.777Z,4.07
2023-05-13T14:20:01.934Z,3.13
2023-05-13T14:22:28.904Z,2.22
2023-05-13T14:24:55.852Z,2.70
2023-05-13T14:27:24.770Z,3.50
2023-05-13T14:29:51.798Z,2.85
2023-05-13T14:32:18.728Z,3.28
2023-05-13T14:34:46.180Z,2.47
2023-05-13T14:37:13.070Z,3.95
2023-05-13T14:39:39.980Z,2.92
2023-05-13T14:42:07.059Z,5.68
2023-05-13T14:44:34.000Z,3.20
2023-05-13T14:47:01.217Z,3.60
2023-05-13T14:49:28.568Z,3.00
2023-05-13T14:51:55.660Z,2.47
2023-05-13T14:54:22.594Z,4.30
2023-05-13T14:56:50.718Z,2.42
2023-05-13T14:59:17.600Z,3.47
2023-05-13T15:01:45.112Z,4.95
2023-05-13T15:04:11.993Z,3.00
2023-05-13T15:06:39.084Z,4.53
2023-05-13T15:09:07.175Z,4.18
2023-05-13T15:11:34.346Z,2.63
2023-05-13T15:14:02.361Z,4.05
2023-05-13T15:16:29.184Z,4.40
2023-05-13T15:18:56.197Z,3.00
2023-05-13T15:21:23.115Z,3.28
2023-05-13T15:23:50.055Z,4.53
2023-05-13T15:26:16.877Z,2.85
2023-05-13T15:28:43.749Z,3.95
2023-05-13T15:31:10.773Z,3.80
2023-05-13T15:33:37.722Z,6.93
2023-05-13T15:36:05.769Z,3.28
2023-05-13T15:38:32.678Z,4.45
2023-05-13T15:40:59.959Z,3.67
2023-05-13T15:43:27.120Z,5.20
2023-05-13T15:45:54.971Z,4.05
2023-05-13T15:48:21.847Z,4.93
2023-05-13T15:50:48.704Z,4.82
2023-05-13T15:53:15.712Z,6.43
2023-05-13T15:55:42.903Z,2.92
2023-05-13T15:58:09.732Z,4.18
2023-05-13T16:00:36.588Z,4.57
2023-05-13T16:03:03.586Z,5.40
2023-05-13T16:05:30.640Z,4.63
2023-05-13T16:07:57.548Z,3.17
2023-05-13T16:10:24.800Z,9.95
2023-05-13T16:12:51.935Z,6.30
2023-05-13T16:15:18.920Z,6.63
2023-05-13T16:17:45.817Z,2.83
2023-05-13T16:20:13.526Z,3.80
2023-05-13T16:22:40.562Z,4.40
2023-05-13T16:25:09.021Z,13.77
2023-05-13T16:27:37.289Z,4.85
2023-05-13T16:30:06.256Z,3.78
2023-05-13T16:32:34.709Z,4.15
2023-05-13T16:35:01.838Z,4.32
2023-05-13T16:37:29.370Z,3.08
2023-05-13T16:39:56.252Z,3.30
2023-05-13T16:42:23.623Z,3.35
2023-05-13T16:44:51.648Z,3.15
2023-05-13T16:47:18.551Z,4.57
2023-05-13T16:49:45.556Z,3.63
2023-05-13T16:52:12.527Z,3.30
2023-05-13T16:54:39.316Z,3.47
2023-05-13T16:57:06.277Z,5.82
2023-05-13T16:59:33.375Z,3.42
2023-05-13T17:02:00.715Z,3.50
2023-05-13T17:04:28.386Z,3.40
2023-05-13T17:06:58.205Z,5.07
2023-05-13T17:09:26.233Z,4.15
2023-05-13T17:11:54.608Z,3.40
2023-05-13T17:14:21.931Z,3.83
2023-05-13T17:16:48.987Z,3.78
2023-05-13T17:19:16.065Z,5.55
2023-05-13T17:21:43.184Z,5.43
2023-05-13T17:24:10.012Z,4.72
2023-05-13T17:26:38.592Z,5.30
2023-05-13T17:29:06.034Z,5.03
2023-05-13T17:31:33.622Z,4.57
2023-05-13T17:34:00.740Z,3.72
2023-05-13T17:36:27.711Z,3.63
2023-05-13T17:38:54.630Z,4.03
2023-05-13T17:41:21.771Z,4.63
2023-05-13T17:43:48.802Z,4.85
2023-05-13T17:46:15.852Z,4.53
2023-05-13T17:48:43.075Z,4.65
2023-05-13T17:51:11.496Z,3.88
2023-05-13T17:53:38.325Z,3.95
2023-05-13T17:56:05.849Z,3.95
2023-05-13T17:58:32.644Z,5.03
2023-05-13T18:01:01.507Z,3.85
2023-05-13T18:03:28.501Z,4.28
2023-05-13T18:05:55.538Z,4.68
2023-05-13T18:08:22.656Z,4.03
2023-05-13T18:10:49.516Z,3.88
2023-05-13T18:13:16.337Z,8.02
2023-05-13T18:15:43.218Z,4.75
2023-05-13T18:18:10.217Z,3.60
2023-05-13T18:20:39.944Z,5.18
2023-05-13T18:23:07.095Z,3.63
2023-05-13T18:25:39.893Z,4.70
2023-05-13T18:28:12.443Z,4.28
2023-05-13T18:30:39.308Z,5.82
2023-05-13T18:33:06.279Z,4.25
2023-05-13T18:35:33.221Z,4.47
2023-05-13T18:38:00.058Z,4.82
2023-05-13T18:40:26.962Z,3.50
2023-05-13T18:42:53.787Z,3.10
2023-05-13T18:45:21.150Z,3.63
2023-05-13T18:47:48.064Z,4.07
2023-05-13T18:50:14.985Z,5.30
2023-05-13T18:52:42.036Z,6.63
2023-05-13T18:55:09.129Z,4.85
2023-05-13T18:57:36.011Z,5.70
2023-05-13T19:00:04.273Z,3.30
2023-05-13T19:02:31.652Z,5.32
2023-05-13T19:04:58.890Z,4.40
2023-05-13T19:07:26.127Z,3.50
2023-05-13T19:09:53.056Z,5.78
2023-05-13T19:12:19.941Z,5.82
2023-05-13T19:14:46.844Z,4.07
2023-05-13T19:17:13.962Z,6.20
2023-05-13T19:19:41.169Z,5.30
2023-05-13T19:22:08.098Z,5.40
2023-05-13T19:24:34.998Z,5.18
2023-05-13T19:27:02.090Z,5.63
2023-05-13T19:29:28.957Z,3.95
2023-05-13T19:31:55.767Z,4.38
2023-05-13T19:34:22.902Z,4.35
2023-05-13T19:36:49.863Z,3.85
2023-05-13T19:39:16.784Z,4.63
2023-05-13T19:41:43.775Z,4.00
2023-05-13T19:44:10.674Z,3.78
2023-05-13T19:46:37.938Z,5.47
2023-05-13T19:49:04.888Z,5.53
2023-05-13T19:51:32.553Z,7.93
2023-05-13T19:53:59.431Z,9.07
2023-05-13T19:56:26.405Z,8.30
2023-05-13T19:58:53.426Z,7.05
2023-05-13T20:01:20.637Z,7.60
2023-05-13T20:03:47.708Z,8.73
2023-05-13T20:06:14.611Z,7.50
2023-05-13T20:08:41.505Z,6.47
2023-05-13T20:11:08.420Z,8.75
2023-05-13T20:13:35.697Z,6.18
2023-05-13T20:16:02.948Z,6.10
2023-05-13T20:18:29.975Z,6.38
2023-05-13T20:20:56.988Z,6.85
2023-05-13T20:23:23.953Z,6.00
2023-05-13T20:25:51.792Z,5.60
2023-05-13T20:28:18.606Z,6.15
2023-05-13T20:30:45.583Z,6.40
2023-05-13T20:33:13.433Z,5.22
2023-05-13T20:35:40.945Z,7.80
2023-05-13T20:38:08.137Z,8.15
2023-05-13T20:40:35.243Z,5.82
2023-05-13T20:43:02.225Z,5.78
2023-05-13T20:45:29.126Z,8.32
2023-05-13T20:47:59.217Z,6.75
2023-05-13T20:50:27.573Z,7.90
2023-05-13T20:52:55.376Z,8.27
2023-05-13T20:55:22.812Z,6.65
2023-05-13T20:57:52.797Z,6.82
2023-05-13T21:00:20.257Z,5.93
2023-05-13T21:02:48.707Z,5.63
2023-05-13T21:05:15.840Z,6.72
2023-05-13T21:07:42.714Z,6.28
2023-05-13T21:10:09.836Z,4.28
2023-05-13T21:12:36.946Z,5.88
2023-05-13T21:15:04.115Z,6.70
2023-05-13T21:17:31.032Z,5.75
2023-05-13T21:19:58.392Z,8.43
2023-05-13T21:22:25.471Z,6.70
2023-05-13T21:24:52.443Z,5.97
2023-05-13T21:27:19.322Z,6.22
2023-05-13T21:29:46.152Z,5.38
2023-05-13T21:32:13.069Z,6.22
2023-05-13T21:34:40.038Z,5.10
2023-05-13T21:37:06.842Z,5.15
2023-05-13T21:39:33.701Z,5.32
2023-05-13T21:42:00.731Z,7.28
2023-05-13T21:44:29.076Z,7.88
2023-05-13T21:46:56.001Z,6.40
2023-05-13T21:49:22.986Z,6.50
2023-05-13T21:51:50.180Z,9.30
2023-05-13T21:54:18.692Z,8.02
2023-05-13T21:56:45.797Z,7.43
2023-05-13T21:59:12.917Z,9.23
2023-05-13T22:01:39.774Z,10.48
2023-05-13T22:04:06.761Z,7.57
2023-05-13T22:06:33.675Z,8.90
2023-05-13T22:09:01.592Z,8.73
2023-05-13T22:11:28.540Z,8.57
2023-05-13T22:13:55.615Z,8.85
2023-05-13T22:16:22.499Z,8.65
2023-05-13T22:18:50.192Z,8.60
2023-05-13T22:21:17.442Z,9.43
2023-05-13T22:23:44.347Z,9.10
2023-05-13T22:26:11.464Z,7.18
2023-05-13T22:28:38.364Z,10.43
2023-05-13T22:31:05.295Z,9.60
2023-05-13T22:33:32.238Z,9.80
2023-05-13T22:35:59.338Z,9.82
2023-05-13T22:38:26.502Z,9.48
2023-05-13T22:40:53.376Z,8.88
2023-05-13T22:43:20.358Z,8.63
2023-05-13T22:45:47.280Z,9.38
2023-05-13T22:48:15.097Z,8.63
2023-05-13T22:50:42.004Z,9.23
2023-05-13T22:53:08.897Z,9.57
2023-05-13T22:55:35.787Z,13.48
2023-05-13T22:58:02.755Z,7.03
2023-05-13T23:00:29.713Z,7.45
2023-05-13T23:02:57.657Z,8.65
2023-05-13T23:05:24.526Z,6.88
2023-05-13T23:07:51.394Z,13.52
2023-05-13T23:10:18.308Z,8.75
2023-05-13T23:12:45.385Z,8.80
2023-05-13T23:15:14.379Z,7.95
2023-05-13T23:17:41.395Z,8.32
2023-05-13T23:20:08.896Z,8.55
2023-05-13T23:22:35.939Z,9.65
2023-05-13T23:25:03.717Z,8.93
2023-05-13T23:27:31.783Z,7.68
2023-05-13T23:29:59.252Z,7.03
2023-05-13T23:32:26.372Z,8.30
2023-05-13T23:34:53.206Z,8.65
2023-05-13T23:37:21.799Z,7.03
2023-05-13T23:39:48.690Z,7.10
2023-05-13T23:42:15.658Z,8.13
2023-05-13T23:44:42.482Z,8.00
2023-05-13T23:47:09.345Z,8.38
2023-05-13T23:49:36.202Z,7.47
2023-05-13T23:52:03.037Z,9.82
2023-05-13T23:54:29.876Z,9.70
2023-05-13T23:56:56.759Z,10.95
2023-05-13T23:59:23.597Z,8.90
